createdAt,value
2023-02-18T00:01:39.844Z,7.50
2023-02-18T00:04:07.375Z,7.50
2023-02-18T00:06:36.593Z,7.60
2023-02-18T00:09:06.390Z,7.60
2023-02-18T00:11:35.966Z,7.60
2023-02-18T00:14:05.573Z,7.60
2023-02-18T00:16:33.110Z,7.50
2023-02-18T00:19:03.379Z,7.40
2023-02-18T00:21:35.099Z,7.40
2023-02-18T00:24:03.596Z,7.40
2023-02-18T00:26:31.159Z,7.40
2023-02-18T00:28:59.125Z,7.40
2023-02-18T00:31:32.196Z,7.30
2023-02-18T00:34:03.126Z,7.20
2023-02-18T00:36:31.302Z,7.30
2023-02-18T00:39:04.022Z,7.20
2023-02-18T00:41:31.969Z,7.20
2023-02-18T00:44:00.045Z,7.30
2023-02-18T00:46:28.750Z,7.30
2023-02-18T00:48:57.250Z,7.40
2023-02-18T00:51:25.782Z,7.30
2023-02-18T00:53:53.671Z,7.30
2023-02-18T00:56:21.511Z,7.30
2023-02-18T00:58:49.785Z,7.20
2023-02-18T01:01:17.690Z,7.30
2023-02-18T01:03:46.176Z,7.10
2023-02-18T01:06:15.174Z,7.10
2023-02-18T01:08:43.393Z,7.20
2023-02-18T01:11:13.080Z,7.30
2023-02-18T01:13:42.053Z,7.40
2023-02-18T01:16:10.757Z,7.30
2023-02-18T01:18:39.393Z,7.20
2023-02-18T01:21:10.417Z,7.10
2023-02-18T01:23:39.392Z,7.20
2023-02-18T01:26:07.797Z,7.20
2023-02-18T01:28:39.238Z,7.10
2023-02-18T01:31:09.198Z,7.00
2023-02-18T01:33:37.661Z,7.00
2023-02-18T01:36:06.285Z,7.00
2023-02-18T01:38:34.151Z,6.90
2023-02-18T01:41:01.863Z,6.90
2023-02-18T01:43:30.343Z,6.90
2023-02-18T01:46:19.435Z,6.90
2023-02-18T01:49:01.454Z,7.00
2023-02-18T01:51:32.473Z,7.10
2023-02-18T01:54:06.585Z,7.20
2023-02-18T01:56:45.183Z,7.20
2023-02-18T01:59:24.476Z,7.10
2023-02-18T02:01:52.889Z,7.00
2023-02-18T02:04:21.376Z,7.00
2023-02-18T02:06:48.955Z,7.00
2023-02-18T02:09:19.996Z,6.90
2023-02-18T02:12:10.826Z,6.90
2023-02-18T02:14:59.654Z,6.80
2023-02-18T02:17:46.678Z,6.80
2023-02-18T02:20:32.910Z,6.80
2023-02-18T02:23:18.542Z,6.50
2023-02-18T02:26:15.575Z,6.50
2023-02-18T02:29:04.825Z,6.50
2023-02-18T02:31:44.539Z,6.50
2023-02-18T02:34:33.142Z,6.60
2023-02-18T02:37:29.602Z,6.40
2023-02-18T02:40:12.496Z,6.50
2023-02-18T02:43:05.753Z,6.30
2023-02-18T02:45:52.085Z,6.30
2023-02-18T02:48:43.790Z,6.00
2023-02-18T02:51:44.130Z,6.10
2023-02-18T02:54:20.631Z,6.00
2023-02-18T02:56:48.682Z,5.90
2023-02-18T02:59:26.144Z,5.90
2023-02-18T03:02:13.574Z,5.90
2023-02-18T03:05:09.520Z,6.20
2023-02-18T03:07:36.977Z,6.20
2023-02-18T03:10:29.526Z,6.30
2023-02-18T03:13:26.074Z,6.30
2023-02-18T03:16:09.613Z,6.50
2023-02-18T03:18:58.230Z,6.50
2023-02-18T03:21:28.065Z,6.30
2023-02-18T03:24:30.662Z,6.00
2023-02-18T03:27:18.775Z,5.70
2023-02-18T03:29:50.606Z,5.50
2023-02-18T03:32:21.355Z,5.50
2023-02-18T03:34:53.578Z,5.60
2023-02-18T03:37:22.566Z,5.50
2023-02-18T03:39:55.525Z,5.50
2023-02-18T03:42:28.913Z,5.50
2023-02-18T03:44:56.622Z,5.50
2023-02-18T03:47:25.308Z,5.60
2023-02-18T03:49:52.752Z,5.40
2023-02-18T03:52:20.510Z,5.40
2023-02-18T03:54:48.465Z,5.50
2023-02-18T03:57:16.030Z,5.50
2023-02-18T03:59:43.666Z,5.60
2023-02-18T04:02:11.205Z,5.60
2023-02-18T04:04:38.991Z,5.60
2023-02-18T04:07:06.556Z,5.80
2023-02-18T04:09:34.124Z,5.90
2023-02-18T04:12:01.586Z,5.60
2023-02-18T04:14:29.056Z,5.80
2023-02-18T04:16:56.791Z,5.80
2023-02-18T04:19:24.322Z,5.60
2023-02-18T04:21:51.874Z,5.50
2023-02-18T04:24:19.395Z,5.60
2023-02-18T04:26:47.130Z,5.60
2023-02-18T04:29:14.928Z,5.70
2023-02-18T04:31:42.604Z,5.50
2023-02-18T04:34:10.324Z,5.50
2023-02-18T04:36:37.919Z,5.40
2023-02-18T04:39:05.442Z,5.50
2023-02-18T04:41:33.028Z,5.60
2023-02-18T04:44:00.752Z,5.80
2023-02-18T04:46:28.581Z,5.60
2023-02-18T04:48:56.237Z,5.70
2023-02-18T04:51:24.210Z,5.80
2023-02-18T04:53:51.774Z,5.60
2023-02-18T04:56:19.376Z,5.40
2023-02-18T04:58:49.920Z,5.50
2023-02-18T05:01:17.711Z,5.50
2023-02-18T05:03:46.232Z,5.70
2023-02-18T05:06:13.896Z,5.50
2023-02-18T05:08:41.452Z,5.40
2023-02-18T05:11:09.580Z,5.60
2023-02-18T05:13:37.135Z,5.60
2023-02-18T05:16:04.972Z,5.70
2023-02-18T05:18:32.485Z,5.70
2023-02-18T05:21:00.492Z,5.60
2023-02-18T05:23:28.079Z,5.40
2023-02-18T05:25:56.330Z,5.20
2023-02-18T05:28:23.907Z,5.00
2023-02-18T05:30:55.059Z,5.10
2023-02-18T05:33:22.624Z,5.10
2023-02-18T05:35:50.488Z,5.30
2023-02-18T05:38:18.063Z,5.50
2023-02-18T05:40:45.604Z,5.40
2023-02-18T05:43:13.332Z,5.60
2023-02-18T05:45:40.870Z,5.70
2023-02-18T05:48:08.644Z,5.70
2023-02-18T05:50:36.170Z,5.70
2023-02-18T05:53:03.904Z,5.60
2023-02-18T05:55:31.489Z,5.40
2023-02-18T05:57:59.024Z,5.30
2023-02-18T06:00:26.683Z,5.20
2023-02-18T06:02:54.318Z,5.20
2023-02-18T06:05:21.834Z,5.00
2023-02-18T06:07:49.682Z,4.90
2023-02-18T06:10:18.729Z,4.90
2023-02-18T06:12:47.256Z,4.80
2023-02-18T06:15:14.733Z,4.80
2023-02-18T06:17:42.276Z,4.70
2023-02-18T06:20:10.209Z,4.70
2023-02-18T06:22:37.742Z,4.70
2023-02-18T06:25:05.454Z,4.80
2023-02-18T06:27:32.908Z,4.80
2023-02-18T06:30:00.504Z,4.90
2023-02-18T06:32:28.109Z,5.00
2023-02-18T06:34:55.705Z,5.00
2023-02-18T06:37:26.255Z,4.80
2023-02-18T06:39:53.776Z,4.80
2023-02-18T06:42:21.208Z,4.80
2023-02-18T06:44:48.733Z,4.70
2023-02-18T06:47:16.283Z,4.60
2023-02-18T06:49:43.865Z,4.60
2023-02-18T06:52:11.548Z,4.50
2023-02-18T06:54:39.529Z,4.60
2023-02-18T06:57:07.726Z,4.80
2023-02-18T06:59:35.330Z,4.90
2023-02-18T07:02:07.408Z,4.90
2023-02-18T07:04:42.145Z,5.10
2023-02-18T07:07:10.250Z,5.40
2023-02-18T07:09:38.482Z,5.30
2023-02-18T07:12:24.395Z,5.40
2023-02-18T07:14:58.346Z,5.60
2023-02-18T07:17:26.044Z,5.70
2023-02-18T07:19:53.645Z,5.70
2023-02-18T07:22:21.236Z,5.50
2023-02-18T07:24:53.198Z,5.40
2023-02-18T07:27:21.703Z,5.30
2023-02-18T07:29:49.937Z,5.30
2023-02-18T07:32:20.179Z,5.60
2023-02-18T07:34:55.532Z,5.50
2023-02-18T07:37:23.384Z,5.60
2023-02-18T07:40:15.619Z,5.80
2023-02-18T07:42:44.005Z,6.00
2023-02-18T07:45:20.144Z,6.10
2023-02-18T07:47:48.069Z,6.10
2023-02-18T07:50:19.176Z,6.10
2023-02-18T07:52:46.713Z,6.10
2023-02-18T07:55:14.525Z,6.00
2023-02-18T07:58:03.776Z,5.90
2023-02-18T08:00:34.606Z,5.90
2023-02-18T08:03:09.822Z,6.00
2023-02-18T08:05:43.337Z,5.80
2023-02-18T08:08:18.659Z,5.90
2023-02-18T08:11:02.733Z,6.10
2023-02-18T08:13:34.685Z,6.00
2023-02-18T08:16:19.703Z,6.00
2023-02-18T08:18:48.840Z,6.20
2023-02-18T08:21:23.687Z,6.20
2023-02-18T08:23:51.386Z,6.20
2023-02-18T08:26:19.880Z,6.10
2023-02-18T08:28:57.153Z,6.10
2023-02-18T08:34:35.514Z,6.20
2023-02-18T08:37:31.478Z,6.20
2023-02-18T08:40:17.419Z,6.30
2023-02-18T08:45:55.350Z,6.40
2023-02-18T08:48:22.840Z,6.40
2023-02-18T08:50:53.476Z,6.40
2023-02-18T08:53:21.729Z,6.30
2023-02-18T08:56:13.291Z,6.30
2023-02-18T08:58:43.911Z,6.30
2023-02-18T09:01:13.424Z,6.40
2023-02-18T09:03:41.200Z,6.50
2023-02-18T09:06:30.712Z,6.60
2023-02-18T09:09:00.493Z,6.60
2023-02-18T09:11:30.100Z,6.60
2023-02-18T09:13:57.635Z,6.70
2023-02-18T09:16:26.320Z,6.80
2023-02-18T09:18:54.458Z,6.70
2023-02-18T09:21:23.527Z,6.70
2023-02-18T09:23:54.063Z,6.60
2023-02-18T09:26:43.060Z,6.60
2023-02-18T09:29:10.867Z,6.80
2023-02-18T09:31:39.615Z,6.90
2023-02-18T09:34:07.422Z,7.20
2023-02-18T09:36:35.354Z,7.40
2023-02-18T09:39:03.047Z,7.50
2023-02-18T09:41:48.338Z,7.40
2023-02-18T09:44:22.655Z,7.40
2023-02-18T09:47:19.058Z,7.40
2023-02-18T09:49:53.604Z,7.20
2023-02-18T09:52:25.953Z,7.40
2023-02-18T09:54:53.784Z,7.40
2023-02-18T09:57:43.125Z,7.30
2023-02-18T10:00:20.471Z,7.30
2023-02-18T10:03:00.012Z,7.50
2023-02-18T10:05:30.564Z,7.30
2023-02-18T10:08:08.128Z,7.50
2023-02-18T10:10:39.897Z,7.80
2023-02-18T10:13:15.759Z,8.00
2023-02-18T10:15:44.458Z,8.00
2023-02-18T10:18:27.438Z,7.70
2023-02-18T10:21:03.637Z,7.60
2023-02-18T10:23:34.162Z,7.70
2023-02-18T10:26:06.075Z,8.00
2023-02-18T10:28:35.411Z,8.30
2023-02-18T10:31:09.927Z,8.50
2023-02-18T10:34:06.833Z,8.40
2023-02-18T10:36:44.709Z,8.60
2023-02-18T10:39:32.537Z,8.60
2023-02-18T10:42:21.816Z,8.60
2023-02-18T10:45:23.295Z,8.70
2023-02-18T10:48:09.537Z,8.90
2023-02-18T10:50:45.391Z,9.10
2023-02-18T10:53:32.633Z,9.60
2023-02-18T10:56:01.004Z,9.70
2023-02-18T10:58:37.190Z,10.20
2023-02-18T11:01:13.454Z,10.50
2023-02-18T11:03:53.536Z,10.80
2023-02-18T11:06:40.906Z,11.00
2023-02-18T11:09:21.388Z,11.20
2023-02-18T11:11:53.681Z,11.50
2023-02-18T11:14:47.857Z,11.80
2023-02-18T11:17:29.922Z,12.10
2023-02-18T11:20:02.811Z,12.20
2023-02-18T11:22:33.328Z,12.00
2023-02-18T11:25:02.807Z,12.10
2023-02-18T11:27:44.135Z,12.20
2023-02-18T11:30:35.013Z,12.80
2023-02-18T11:33:23.605Z,12.80
2023-02-18T11:35:56.897Z,13.10
2023-02-18T11:38:35.498Z,13.20
2023-02-18T11:41:12.184Z,13.00
2023-02-18T11:43:54.652Z,13.20
2023-02-18T11:46:25.155Z,13.20
2023-02-18T11:48:53.993Z,13.20
2023-02-18T11:51:38.581Z,13.10
2023-02-18T11:54:21.909Z,14.10
2023-02-18T11:57:20.306Z,14.50
2023-02-18T11:59:50.530Z,15.30
2023-02-18T12:02:38.180Z,16.10
2023-02-18T12:05:18.301Z,16.50
2023-02-18T12:07:51.049Z,16.20
2023-02-18T12:10:38.385Z,16.90
2023-02-18T12:13:35.477Z,17.30
2023-02-18T12:16:22.298Z,18.30
2023-02-18T12:19:41.430Z,18.40
2023-02-18T12:22:29.142Z,17.80
2023-02-18T12:25:12.230Z,17.50
2023-02-18T12:28:00.521Z,17.00
2023-02-18T12:30:46.456Z,17.00
2023-02-18T13:17:45.756Z,14.20
2023-02-18T13:20:27.346Z,14.20
2023-02-18T13:22:57.217Z,14.20
2023-02-18T13:25:26.243Z,13.90
2023-02-18T13:28:10.148Z,13.90
2023-02-18T13:30:51.187Z,14.10
2023-02-18T13:33:35.927Z,14.30
2023-02-18T13:36:32.329Z,14.60
2023-02-18T13:39:08.832Z,14.90
2023-02-18T13:41:42.240Z,15.40
2023-02-18T13:44:41.169Z,15.20
2023-02-18T13:47:12.017Z,14.50
2023-02-18T13:49:43.055Z,14.00
2023-02-18T13:52:20.298Z,13.80
2023-02-18T13:54:58.582Z,14.20
2023-02-18T13:57:29.204Z,14.40
2023-02-18T14:00:05.406Z,14.40
2023-02-18T14:02:57.899Z,14.00
2023-02-18T14:05:39.788Z,14.00
2023-02-18T14:08:29.058Z,13.50
2023-02-18T14:11:17.560Z,12.80
2023-02-18T14:14:17.141Z,12.40
2023-02-18T14:17:22.669Z,12.30
2023-02-18T14:20:18.152Z,12.40
2023-02-18T14:23:19.701Z,12.40
2023-02-18T14:26:42.560Z,12.30
2023-02-18T14:29:59.691Z,12.30
2023-02-18T14:36:53.208Z,12.30
2023-02-18T14:40:09.950Z,12.20
2023-02-18T14:43:01.481Z,12.10
2023-02-18T14:46:10.444Z,12.10
2023-02-18T14:49:02.370Z,12.10
2023-02-18T14:51:59.186Z,12.20
2023-02-18T14:54:54.191Z,12.10
2023-02-18T14:57:36.835Z,12.10
2023-02-18T15:00:05.874Z,12.00
2023-02-18T15:02:40.809Z,11.90
2023-02-18T15:05:18.860Z,11.90
2023-02-18T15:08:10.302Z,12.00
2023-02-18T15:10:49.471Z,11.90
2023-02-18T15:13:33.093Z,11.70
2023-02-18T15:16:20.376Z,11.80
2023-02-18T15:19:00.474Z,11.80
2023-02-18T15:21:42.796Z,11.80
2023-02-18T15:24:26.362Z,11.80
2023-02-18T15:26:59.507Z,11.70
2023-02-18T15:29:30.780Z,11.60
2023-02-18T15:31:59.640Z,11.70
2023-02-18T15:34:31.418Z,11.70
2023-02-18T15:37:05.036Z,11.70
2023-02-18T15:39:33.517Z,11.70
2023-02-18T15:42:27.569Z,11.70
2023-02-18T15:45:22.538Z,11.70
2023-02-18T15:47:55.888Z,11.60
2023-02-18T15:50:44.426Z,11.60
2023-02-18T15:53:17.282Z,11.60
2023-02-18T15:55:48.332Z,11.60
2023-02-18T15:58:22.451Z,11.40
2023-02-18T16:00:53.693Z,11.40
2023-02-18T16:04:01.903Z,11.20
2023-02-18T16:06:31.646Z,11.20
2023-02-18T16:09:17.217Z,11.20
2023-02-18T16:11:52.255Z,11.20
2023-02-18T16:14:35.831Z,11.20
2023-02-18T16:17:12.046Z,11.10
2023-02-18T16:20:05.386Z,11.00
2023-02-18T16:22:43.015Z,11.00
2023-02-18T16:25:16.096Z,11.00
2023-02-18T16:28:01.710Z,11.00
2023-02-18T16:30:46.507Z,11.00
2023-02-18T16:33:34.954Z,10.90
2023-02-18T16:51:54.857Z,10.70
2023-02-18T16:55:35.545Z,10.40
2023-02-18T16:58:09.911Z,10.40
2023-02-18T17:00:44.783Z,10.30
2023-02-18T17:06:25.212Z,10.10
2023-02-18T17:12:45.275Z,10.10
2023-02-18T17:16:00.277Z,10.10
2023-02-18T17:18:27.872Z,10.00
2023-02-18T17:20:58.867Z,10.00
2023-02-18T17:23:35.525Z,9.90
2023-02-18T17:26:06.350Z,9.80
2023-02-18T17:37:56.623Z,9.80
2023-02-18T17:40:32.729Z,9.60
2023-02-18T17:43:15.793Z,9.60
2023-02-18T17:50:01.024Z,9.40
2023-02-18T17:55:54.650Z,9.20
2023-02-18T17:58:22.295Z,9.20
2023-02-18T18:00:55.472Z,9.20
2023-02-18T18:03:26.243Z,9.10
2023-02-18T18:05:54.576Z,9.10
2023-02-18T18:08:22.293Z,9.00
2023-02-18T18:10:56.097Z,9.00
2023-02-18T18:13:29.540Z,9.00
2023-02-18T18:16:02.729Z,8.90
2023-02-18T18:18:37.110Z,8.90
2023-02-18T18:21:20.782Z,8.90
2023-02-18T18:25:05.215Z,8.90
2023-02-18T18:27:36.906Z,8.80
2023-02-18T18:30:10.362Z,8.70
2023-02-18T18:32:58.539Z,8.70
2023-02-18T18:39:42.986Z,8.50
2023-02-18T18:42:12.952Z,8.50
2023-02-18T18:44:41.188Z,8.50
2023-02-18T18:47:08.902Z,8.60
2023-02-18T18:49:36.442Z,8.60
2023-02-18T18:52:04.808Z,8.50
2023-02-18T18:54:32.469Z,8.50
2023-02-18T18:57:00.225Z,8.50
2023-02-18T18:59:27.785Z,8.60
2023-02-18T19:01:55.491Z,8.60
2023-02-18T19:04:26.277Z,8.60
2023-02-18T19:06:54.218Z,8.70
2023-02-18T19:09:25.302Z,8.70
2023-02-18T19:11:53.007Z,8.70
2023-02-18T19:14:22.175Z,8.70
2023-02-18T19:16:49.804Z,8.80
2023-02-18T19:19:26.584Z,8.80
2023-02-18T19:21:54.306Z,8.70
2023-02-18T19:24:21.815Z,8.60
2023-02-18T19:26:49.397Z,8.50
2023-02-18T19:29:21.488Z,8.50
2023-02-18T19:31:51.974Z,8.60
2023-02-18T19:34:19.621Z,8.60
2023-02-18T19:36:48.162Z,8.50
2023-02-18T19:39:15.658Z,8.50
2023-02-18T19:41:43.419Z,8.40
2023-02-18T19:44:11.100Z,8.40
2023-02-18T19:46:38.593Z,8.40
2023-02-18T19:49:06.440Z,8.60
2023-02-18T19:51:34.898Z,8.60
2023-02-18T19:54:03.618Z,8.60
2023-02-18T19:56:31.328Z,8.60
2023-02-18T19:58:59.014Z,8.60
2023-02-18T20:01:27.082Z,8.60
2023-02-18T20:03:55.313Z,8.50
2023-02-18T20:06:22.929Z,8.40
2023-02-18T20:09:22.138Z,8.30
2023-02-18T20:11:52.883Z,8.20
2023-02-18T20:14:21.487Z,8.20
2023-02-18T20:16:48.966Z,8.20
2023-02-18T20:19:16.464Z,8.20
2023-02-18T20:21:44.014Z,8.10
2023-02-18T20:24:11.742Z,8.10
2023-02-18T20:26:39.567Z,8.20
2023-02-18T20:29:07.112Z,8.30
2023-02-18T20:50:21.927Z,7.70
2023-02-18T20:52:53.456Z,7.80
2023-02-18T20:55:24.440Z,7.60
2023-02-18T20:58:00.695Z,7.60
2023-02-18T21:01:16.036Z,7.60
2023-02-18T21:04:12.097Z,7.60
2023-02-18T21:06:53.799Z,7.60
2023-02-18T21:09:33.656Z,7.60
2023-02-18T23:02:40.862Z,7.40
2023-02-18T23:21:06.170Z,7.40
2023-02-18T23:23:48.078Z,7.40
2023-02-18T23:29:55.935Z,7.50
